Time;durP1;ratioP1;P1;durP2;ratioP2;P2;SDS_P1;SDS_P2;PMS_P1;PMS_P2;Temp;Humidity;BMP_temperature;BMP_pressure;BME280_temperature;BME280_humidity;BME280_pressure;Samples;Min_cycle;Max_cycle;Signal;HPM_P1;HPM_P2
2023/07/06 00:01:11;;;;;;;2.30;1.35;;;21.00;99.90;;;;;;5011951;28;20026;-39
2023/07/06 00:03:38;;;;;;;1.85;1.20;;;20.90;99.80;;;;;;5012002;28;20030;-38
2023/07/06 00:06:10;;;;;;;3.17;1.38;;;21.00;99.90;;;;;;5013254;28;20421;-41
2023/07/06 00:08:37;;;;;;;3.95;1.30;;;21.00;99.90;;;;;;5012240;28;20101;-37
2023/07/06 00:11:07;;;;;;;2.25;1.55;;;21.00;99.90;;;;;;5011755;28;20092;-37
2023/07/06 00:13:33;;;;;;;1.88;1.40;;;21.00;99.90;;;;;;5011654;28;20033;-39
2023/07/06 00:16:02;;;;;;;2.15;1.55;;;20.90;99.90;;;;;;5011765;28;20026;-41
2023/07/06 00:18:29;;;;;;;3.22;1.33;;;20.90;99.90;;;;;;5011740;28;20022;-39
2023/07/06 00:20:55;;;;;;;3.63;1.50;;;20.90;99.90;;;;;;5011553;28;20034;-39
2023/07/06 00:23:23;;;;;;;2.75;1.40;;;20.90;99.90;;;;;;5011756;28;20113;-41
2023/07/06 00:25:49;;;;;;;3.40;1.23;;;20.90;99.90;;;;;;5011567;28;20032;-37
2023/07/06 00:28:24;;;;;;;2.28;1.52;;;20.90;99.90;;;;;;5012262;28;20100;-42
2023/07/06 00:30:55;;;;;;;5.47;1.60;;;20.90;99.90;;;;;;5011675;28;20495;-40
2023/07/06 00:33:23;;;;;;;2.55;1.45;;;20.90;99.90;;;;;;5011554;28;20081;-37
2023/07/06 00:35:49;;;;;;;2.25;1.33;;;20.90;99.90;;;;;;5011432;28;20022;-39
2023/07/06 00:38:18;;;;;;;1.77;1.63;;;20.90;99.90;;;;;;5011675;28;20053;-39
2023/07/06 00:40:56;;;;;;;3.17;1.25;;;20.90;99.90;;;;;;5011437;28;20030;-40
2023/07/06 00:43:23;;;;;;;2.47;1.40;;;20.90;99.90;;;;;;5011505;28;20076;-40
2023/07/06 00:45:55;;;;;;;2.10;1.10;;;20.90;99.90;;;;;;5011381;28;20064;-40
2023/07/06 00:48:35;;;;;;;4.10;1.20;;;20.90;99.90;;;;;;5011169;28;20414;-39
2023/07/06 00:51:32;;;;;;;3.22;1.50;;;20.90;99.90;;;;;;5011235;28;20481;-38
2023/07/06 00:54:03;;;;;;;2.40;1.50;;;20.90;99.90;;;;;;5010346;28;20121;-39
2023/07/06 00:56:34;;;;;;;2.78;1.15;;;20.90;99.90;;;;;;5012267;28;20026;-39
2023/07/06 00:59:05;;;;;;;3.00;1.45;;;20.90;99.90;;;;;;5015242;28;20084;-37
2023/07/06 01:01:34;;;;;;;1.90;1.27;;;20.90;99.90;;;;;;5015419;28;20049;-39
2023/07/06 01:04:02;;;;;;;4.22;1.70;;;20.90;99.90;;;;;;5016184;28;20019;-40
2023/07/06 01:06:43;;;;;;;2.15;1.30;;;20.90;99.90;;;;;;5015196;28;20029;-40
2023/07/06 01:09:11;;;;;;;1.77;1.30;;;20.90;99.90;;;;;;5015830;28;20038;-39
2023/07/06 01:11:38;;;;;;;2.42;1.50;;;20.90;99.90;;;;;;5016231;28;20087;-37
2023/07/06 01:14:04;;;;;;;1.83;1.30;;;20.80;99.90;;;;;;5015424;28;20041;-39
2023/07/06 01:16:53;;;;;;;5.07;1.70;;;20.90;99.90;;;;;;5014993;28;20030;-40
2023/07/06 01:19:55;;;;;;;2.75;1.42;;;20.80;99.90;;;;;;5015551;28;20045;-40
2023/07/06 01:22:40;;;;;;;1.83;1.38;;;20.80;99.90;;;;;;5015208;28;20351;-40
2023/07/06 01:25:24;;;;;;;4.65;1.40;;;20.90;99.90;;;;;;5014733;28;20041;-40
2023/07/06 01:28:11;;;;;;;1.63;1.27;;;20.80;99.90;;;;;;5014791;28;20030;-40
2023/07/06 01:30:49;;;;;;;4.05;1.10;;;20.90;99.90;;;;;;5014505;28;20393;-40
2023/07/06 01:33:47;;;;;;;1.90;1.58;;;20.90;99.90;;;;;;5014632;28;20382;-40
2023/07/06 01:36:37;;;;;;;3.00;1.40;;;20.80;99.90;;;;;;4998047;28;20485;-39
2023/07/06 01:39:26;;;;;;;2.75;1.30;;;20.90;99.90;;;;;;5014384;28;20068;-40
2023/07/06 01:42:10;;;;;;;2.78;1.60;;;20.80;99.90;;;;;;5014546;28;20120;-39
2023/07/06 01:44:42;;;;;;;2.55;1.45;;;20.80;99.90;;;;;;5014330;28;20100;-39
2023/07/06 01:47:09;;;;;;;2.40;1.50;;;20.80;99.90;;;;;;5014499;28;20022;-38
2023/07/06 01:49:35;;;;;;;1.77;1.50;;;20.90;99.90;;;;;;5014015;28;20417;-38
2023/07/06 01:52:24;;;;;;;3.42;1.58;;;20.80;99.90;;;;;;5014380;28;20087;-41
2023/07/06 01:55:02;;;;;;;3.13;1.17;;;20.80;99.70;;;;;;5014218;28;20025;-40
2023/07/06 01:57:33;;;;;;;2.03;1.27;;;20.80;99.90;;;;;;5014280;28;20072;-38
2023/07/06 02:00:05;;;;;;;2.03;1.30;;;20.80;99.80;;;;;;5014028;28;20029;-39
2023/07/06 02:02:32;;;;;;;2.20;1.30;;;20.80;99.90;;;;;;5014206;28;20036;-39
2023/07/06 02:05:02;;;;;;;3.50;1.48;;;20.80;99.90;;;;;;5014016;28;20126;-39
2023/07/06 02:07:27;;;;;;;1.50;1.20;;;20.80;99.90;;;;;;5013704;28;20021;-41
2023/07/06 02:09:54;;;;;;;2.75;1.52;;;20.80;99.90;;;;;;5013689;28;20378;-40
2023/07/06 02:12:21;;;;;;;2.80;1.35;;;20.80;99.90;;;;;;5013982;28;20473;-41
2023/07/06 02:14:48;;;;;;;2.13;1.50;;;20.80;99.90;;;;;;5013951;28;20095;-40
2023/07/06 02:17:15;;;;;;;1.92;1.30;;;20.80;99.90;;;;;;5014426;28;20022;-40
2023/07/06 02:19:43;;;;;;;3.22;1.60;;;20.80;99.90;;;;;;5013638;28;20444;-37
2023/07/06 02:22:09;;;;;;;1.88;1.27;;;20.80;99.90;;;;;;5013986;28;20478;-39
2023/07/06 02:24:36;;;;;;;2.47;1.45;;;20.80;99.90;;;;;;5013646;28;20022;-39
2023/07/06 02:27:03;;;;;;;1.42;1.20;;;20.80;99.90;;;;;;5013716;28;20420;-39
2023/07/06 02:29:29;;;;;;;2.17;1.40;;;20.80;99.90;;;;;;5013402;28;20425;-39
2023/07/06 02:31:55;;;;;;;2.45;1.50;;;20.80;99.90;;;;;;5013720;28;20104;-38
2023/07/06 02:34:26;;;;;;;1.63;1.00;;;20.80;99.90;;;;;;5013949;28;20097;-39
2023/07/06 02:36:54;;;;;;;2.03;1.13;;;20.80;99.90;;;;;;5014107;28;20022;-37
2023/07/06 02:39:27;;;;;;;1.98;1.40;;;20.70;99.90;;;;;;5013407;28;20057;-39
2023/07/06 02:41:54;;;;;;;1.70;1.30;;;20.80;99.90;;;;;;5015017;28;20037;-40
2023/07/06 02:44:23;;;;;;;3.53;1.42;;;20.70;99.90;;;;;;5013867;28;20573;-40
2023/07/06 02:46:50;;;;;;;2.40;1.30;;;20.70;99.90;;;;;;5014045;28;20046;-39
2023/07/06 02:49:16;;;;;;;3.63;1.50;;;20.80;99.90;;;;;;5011770;28;20080;-39
2023/07/06 02:51:42;;;;;;;1.92;1.40;;;20.70;99.90;;;;;;5013244;28;20021;-38
2023/07/06 02:54:13;;;;;;;2.17;1.35;;;20.70;99.90;;;;;;5013044;28;20554;-40
2023/07/06 02:56:39;;;;;;;3.50;1.50;;;20.70;99.70;;;;;;5013215;28;20028;-40
2023/07/06 02:59:04;;;;;;;2.55;1.58;;;20.70;99.90;;;;;;5013385;28;20120;-40
2023/07/06 03:01:30;;;;;;;3.13;1.52;;;20.70;99.90;;;;;;5013028;28;20065;-40
2023/07/06 03:03:55;;;;;;;2.03;1.27;;;20.70;99.50;;;;;;5012798;28;20487;-39
2023/07/06 03:06:21;;;;;;;1.95;1.45;;;20.70;99.80;;;;;;5012950;28;20096;-40
2023/07/06 03:08:47;;;;;;;2.33;1.58;;;20.70;99.80;;;;;;5012697;28;20030;-40
2023/07/06 03:11:14;;;;;;;3.00;1.52;;;20.70;99.90;;;;;;5012877;28;20497;-40
2023/07/06 03:13:40;;;;;;;4.22;1.27;;;20.70;99.70;;;;;;5012742;28;20370;-41
2023/07/06 03:16:07;;;;;;;2.20;1.42;;;20.70;99.70;;;;;;5012714;28;20385;-40
2023/07/06 03:18:33;;;;;;;3.25;1.42;;;20.70;99.60;;;;;;5012713;28;20054;-39
2023/07/06 03:21:00;;;;;;;2.03;1.20;;;20.70;99.50;;;;;;5011952;28;20072;-39
2023/07/06 03:23:27;;;;;;;3.50;1.50;;;20.70;99.80;;;;;;5012779;28;20025;-38
2023/07/06 03:25:53;;;;;;;2.10;1.05;;;20.70;99.70;;;;;;5012521;28;20034;-39
2023/07/06 03:28:21;;;;;;;1.52;1.20;;;20.70;99.80;;;;;;5012473;28;20426;-39
2023/07/06 03:30:53;;;;;;;2.78;1.50;;;20.70;99.90;;;;;;5013112;28;20033;-38
2023/07/06 03:33:19;;;;;;;2.20;1.45;;;20.70;99.90;;;;;;5012434;28;20395;-40
2023/07/06 03:35:45;;;;;;;2.42;1.50;;;20.60;99.70;;;;;;5012369;28;20496;-39
2023/07/06 03:38:12;;;;;;;2.50;1.40;;;20.70;99.60;;;;;;5013944;28;20037;-39
2023/07/06 03:40:38;;;;;;;4.50;1.60;;;20.60;99.60;;;;;;5012089;28;20026;-38
2023/07/06 03:43:04;;;;;;;3.08;1.30;;;20.70;99.50;;;;;;5012351;28;20037;-40
2023/07/06 03:45:30;;;;;;;2.42;1.80;;;20.60;99.50;;;;;;5012076;28;20022;-40
2023/07/06 03:47:56;;;;;;;1.95;1.30;;;20.60;99.60;;;;;;5012408;28;20445;-38
2023/07/06 03:50:21;;;;;;;1.80;1.35;;;20.60;99.40;;;;;;5012047;28;20062;-39
2023/07/06 03:52:48;;;;;;;3.92;1.70;;;20.60;99.30;;;;;;5012397;28;20025;-38
2023/07/06 03:55:20;;;;;;;2.05;1.35;;;20.60;99.20;;;;;;5011988;28;20088;-40
2023/07/06 03:57:46;;;;;;;2.47;1.55;;;20.60;99.60;;;;;;5012082;28;20021;-40
2023/07/06 04:00:19;;;;;;;6.35;1.80;;;20.60;99.50;;;;;;5011645;28;20034;-39
2023/07/06 04:02:47;;;;;;;3.08;1.60;;;20.60;99.30;;;;;;5011910;28;20033;-38
2023/07/06 04:05:13;;;;;;;2.72;1.52;;;20.60;99.80;;;;;;5011763;28;20536;-38
2023/07/06 04:07:40;;;;;;;3.67;1.70;;;20.60;99.50;;;;;;5011817;28;20065;-40
2023/07/06 04:10:06;;;;;;;2.45;1.52;;;20.60;99.40;;;;;;5011586;28;20505;-41
2023/07/06 04:12:32;;;;;;;2.63;1.48;;;20.60;99.50;;;;;;5011652;28;20109;-39
2023/07/06 04:14:58;;;;;;;3.55;1.73;;;20.60;99.50;;;;;;5011766;28;20112;-38
2023/07/06 04:17:24;;;;;;;2.75;1.50;;;20.60;99.30;;;;;;5012560;28;20018;-37
2023/07/06 04:19:53;;;;;;;3.20;1.40;;;20.60;99.20;;;;;;5011328;28;20116;-41
2023/07/06 04:22:19;;;;;;;3.45;1.70;;;20.60;99.20;;;;;;5011701;28;20022;-40
2023/07/06 04:24:44;;;;;;;7.07;1.70;;;20.60;99.20;;;;;;5013237;28;20034;-40
2023/07/06 04:27:10;;;;;;;1.90;1.40;;;20.60;99.10;;;;;;5011491;28;20421;-42
2023/07/06 04:29:37;;;;;;;2.58;1.38;;;20.60;99.00;;;;;;5011218;28;20497;-39
2023/07/06 04:32:03;;;;;;;2.10;1.50;;;20.60;99.00;;;;;;5011684;28;20037;-38
2023/07/06 04:34:30;;;;;;;2.40;1.40;;;20.60;99.20;;;;;;5011487;28;20443;-39
2023/07/06 04:36:56;;;;;;;2.45;1.40;;;20.60;99.20;;;;;;5011506;28;20101;-40
2023/07/06 04:39:22;;;;;;;1.80;1.38;;;20.60;99.30;;;;;;5011292;28;20481;-41
2023/07/06 04:41:48;;;;;;;2.42;1.38;;;20.50;99.20;;;;;;5012000;28;20032;-37
2023/07/06 04:44:15;;;;;;;3.13;1.52;;;20.60;99.10;;;;;;5011361;28;20109;-40
2023/07/06 04:46:42;;;;;;;2.85;1.95;;;20.60;99.00;;;;;;5011455;28;20026;-38
2023/07/06 04:49:07;;;;;;;2.63;1.55;;;20.50;99.20;;;;;;5011575;28;20405;-38
2023/07/06 04:51:35;;;;;;;3.80;1.70;;;20.50;99.50;;;;;;5011347;28;20019;-40
2023/07/06 04:54:02;;;;;;;3.17;1.50;;;20.50;99.10;;;;;;5011346;28;20072;-39
2023/07/06 04:56:27;;;;;;;2.20;1.45;;;20.50;99.20;;;;;;5011273;28;20102;-37
2023/07/06 04:58:53;;;;;;;2.30;1.55;;;20.50;99.00;;;;;;5011490;28;20104;-39
2023/07/06 05:01:19;;;;;;;5.15;1.63;;;20.60;99.00;;;;;;5011370;28;20489;-39
2023/07/06 05:03:45;;;;;;;3.58;1.40;;;20.50;99.10;;;;;;5010071;28;20033;-38
2023/07/06 05:06:12;;;;;;;1.75;1.48;;;20.50;99.20;;;;;;5011229;28;20034;-42
2023/07/06 05:08:39;;;;;;;2.03;1.50;;;20.50;99.10;;;;;;5011113;28;20037;-39
2023/07/06 05:11:05;;;;;;;5.82;1.60;;;20.50;99.00;;;;;;5011036;28;20054;-40
2023/07/06 05:13:32;;;;;;;2.47;1.50;;;20.50;99.10;;;;;;5011752;28;20034;-39
2023/07/06 05:15:57;;;;;;;2.30;1.42;;;20.60;99.10;;;;;;5011600;28;20486;-39
2023/07/06 05:18:23;;;;;;;3.22;1.67;;;20.60;98.90;;;;;;5011092;28;20084;-40
2023/07/06 05:20:51;;;;;;;2.10;1.50;;;20.50;99.00;;;;;;5010835;28;20041;-40
2023/07/06 05:23:22;;;;;;;1.60;1.40;;;20.50;99.00;;;;;;5011064;28;20034;-38
2023/07/06 05:25:52;;;;;;;2.00;1.50;;;20.50;99.20;;;;;;5011594;28;20060;-39
2023/07/06 05:28:20;;;;;;;2.55;1.45;;;20.50;99.30;;;;;;5011155;28;20401;-40
2023/07/06 05:30:47;;;;;;;3.25;1.50;;;20.50;99.00;;;;;;5010820;28;20075;-39
2023/07/06 05:33:13;;;;;;;4.85;1.65;;;20.50;99.20;;;;;;5010919;28;20109;-38
2023/07/06 05:35:39;;;;;;;1.98;1.48;;;20.50;99.10;;;;;;5011420;28;20368;-40
2023/07/06 05:38:10;;;;;;;1.55;1.38;;;20.50;99.10;;;;;;5011100;28;20021;-38
2023/07/06 05:40:36;;;;;;;3.47;1.40;;;20.50;99.30;;;;;;5010932;28;20048;-40
2023/07/06 05:43:02;;;;;;;2.65;1.40;;;20.50;99.40;;;;;;5012482;28;20101;-37
2023/07/06 05:45:27;;;;;;;2.47;1.20;;;20.50;99.50;;;;;;5014425;28;20461;-38
2023/07/06 05:47:53;;;;;;;2.60;1.75;;;20.50;99.80;;;;;;5014379;28;20026;-38
2023/07/06 05:50:18;;;;;;;2.00;1.40;;;20.50;99.50;;;;;;5013938;28;20025;-40
2023/07/06 05:52:45;;;;;;;1.95;1.42;;;20.60;99.40;;;;;;5014336;28;20544;-39
2023/07/06 05:55:11;;;;;;;3.63;1.80;;;20.50;99.60;;;;;;5014272;28;20100;-38
2023/07/06 05:57:37;;;;;;;2.20;1.30;;;20.50;99.40;;;;;;5014666;28;20490;-39
2023/07/06 06:00:09;;;;;;;1.88;1.23;;;20.50;99.30;;;;;;5014355;28;20034;-39
2023/07/06 06:02:36;;;;;;;3.28;1.42;;;20.50;99.50;;;;;;5014873;28;20333;-38
2023/07/06 06:05:01;;;;;;;2.83;1.42;;;20.50;99.50;;;;;;5013937;28;20080;-39
2023/07/06 06:07:31;;;;;;;2.55;1.63;;;20.50;99.50;;;;;;5014061;28;20029;-39
2023/07/06 06:09:57;;;;;;;2.30;1.50;;;20.50;99.70;;;;;;5013872;28;20018;-39
2023/07/06 06:12:23;;;;;;;2.03;1.30;;;20.50;99.50;;;;;;5006336;28;20037;-36
2023/07/06 06:14:52;;;;;;;2.10;1.50;;;20.50;99.50;;;;;;5014324;28;20108;-39
2023/07/06 06:17:18;;;;;;;1.85;1.30;;;20.50;99.60;;;;;;5013904;28;20065;-39
2023/07/06 06:19:45;;;;;;;2.08;1.40;;;20.50;99.60;;;;;;5013650;28;20504;-40
2023/07/06 06:22:15;;;;;;;2.53;1.60;;;20.50;99.30;;;;;;5013791;28;20091;-38
2023/07/06 06:24:42;;;;;;;2.22;1.45;;;20.50;99.50;;;;;;5013737;28;20094;-37
2023/07/06 06:27:12;;;;;;;1.90;1.50;;;20.60;99.50;;;;;;5014035;28;20021;-37
2023/07/06 06:29:39;;;;;;;3.50;1.60;;;20.50;99.60;;;;;;5013401;28;20022;-40
2023/07/06 06:32:05;;;;;;;2.80;1.30;;;20.50;99.50;;;;;;5013537;28;20025;-42
2023/07/06 06:34:31;;;;;;;2.33;1.20;;;20.50;99.50;;;;;;5013527;28;20053;-40
2023/07/06 06:36:56;;;;;;;2.53;1.30;;;20.60;99.60;;;;;;5013602;28;20474;-40
2023/07/06 06:39:22;;;;;;;2.47;1.10;;;20.50;99.60;;;;;;5013330;28;20061;-39
2023/07/06 06:41:48;;;;;;;2.35;1.63;;;20.50;99.60;;;;;;5013576;28;20374;-39
2023/07/06 06:44:14;;;;;;;1.80;1.30;;;20.50;99.40;;;;;;5013381;28;20065;-40
2023/07/06 06:46:40;;;;;;;2.08;1.30;;;20.50;99.40;;;;;;5013341;28;20018;-39
2023/07/06 06:49:05;;;;;;;2.80;1.50;;;20.50;99.50;;;;;;5013349;28;20481;-40
2023/07/06 06:51:31;;;;;;;2.17;1.38;;;20.60;99.50;;;;;;5012008;28;20437;-39
2023/07/06 06:53:57;;;;;;;3.15;1.40;;;20.50;99.60;;;;;;5012318;28;20025;-38
2023/07/06 06:56:23;;;;;;;1.92;1.23;;;20.50;99.50;;;;;;5013174;28;20025;-39
2023/07/06 06:58:48;;;;;;;1.80;1.27;;;20.50;99.50;;;;;;5012963;28;20515;-39
2023/07/06 07:01:15;;;;;;;2.22;1.20;;;20.50;99.50;;;;;;5013136;28;20108;-40
2023/07/06 07:03:40;;;;;;;3.33;1.30;;;20.50;99.50;;;;;;5013752;28;20088;-37
2023/07/06 07:06:11;;;;;;;3.63;1.40;;;20.50;99.50;;;;;;5014990;28;20481;-40
2023/07/06 07:08:49;;;;;;;1.85;1.30;;;20.60;99.50;;;;;;5012884;28;20458;-39
2023/07/06 07:11:19;;;;;;;2.85;1.50;;;20.50;99.50;;;;;;5013989;28;20072;-40
2023/07/06 07:13:45;;;;;;;1.55;1.20;;;20.60;99.50;;;;;;5012665;28;20441;-39
2023/07/06 07:16:11;;;;;;;2.33;1.40;;;20.50;99.40;;;;;;5012723;28;20038;-40
2023/07/06 07:18:38;;;;;;;2.50;1.40;;;20.50;99.40;;;;;;5012734;28;20101;-39
2023/07/06 07:21:06;;;;;;;1.98;1.25;;;20.50;99.40;;;;;;5012804;28;20041;-39
2023/07/06 07:23:48;;;;;;;1.77;1.10;;;20.50;99.40;;;;;;5013079;28;20543;-38
2023/07/06 07:26:20;;;;;;;1.60;1.30;;;20.50;99.50;;;;;;5012547;28;20109;-38
2023/07/06 07:28:51;;;;;;;1.20;1.08;;;20.50;99.50;;;;;;5012606;28;20072;-37
2023/07/06 07:31:18;;;;;;;1.70;1.23;;;20.60;99.50;;;;;;5013274;28;20393;-39
2023/07/06 07:33:44;;;;;;;1.77;1.30;;;20.50;99.40;;;;;;5012686;28;20028;-38
2023/07/06 07:36:12;;;;;;;2.47;1.20;;;20.50;99.40;;;;;;5012955;28;20121;-40
2023/07/06 07:38:38;;;;;;;1.92;1.17;;;20.60;99.50;;;;;;5012354;28;20501;-42
2023/07/06 07:41:06;;;;;;;2.15;1.33;;;20.60;99.50;;;;;;5012081;28;20034;-37
2023/07/06 07:43:36;;;;;;;1.88;1.40;;;20.60;99.50;;;;;;5012365;28;20021;-39
2023/07/06 07:46:04;;;;;;;2.58;1.30;;;20.60;99.40;;;;;;5013120;28;20513;-39
2023/07/06 07:48:33;;;;;;;1.98;1.30;;;20.60;99.40;;;;;;5012103;28;20052;-38
2023/07/06 07:51:03;;;;;;;1.80;1.40;;;20.60;99.40;;;;;;5013021;28;20497;-40
2023/07/06 07:53:33;;;;;;;1.42;1.08;;;20.60;99.40;;;;;;5011997;28;20109;-40
2023/07/06 07:55:59;;;;;;;1.45;1.20;;;20.60;99.40;;;;;;5012667;28;20025;-40
2023/07/06 07:58:26;;;;;;;1.60;1.30;;;20.60;99.40;;;;;;5012262;28;20032;-40
2023/07/06 08:00:55;;;;;;;2.30;1.23;;;20.60;99.40;;;;;;5011835;28;20029;-40
2023/07/06 08:03:21;;;;;;;2.20;1.45;;;20.60;99.40;;;;;;5011973;28;20030;-42
2023/07/06 08:05:47;;;;;;;2.03;1.35;;;20.60;99.40;;;;;;5011643;28;20038;-40
2023/07/06 08:08:13;;;;;;;1.70;1.20;;;20.60;99.40;;;;;;5013084;28;20034;-40
2023/07/06 08:10:40;;;;;;;3.20;1.30;;;20.60;99.40;;;;;;5012009;28;20076;-40
2023/07/06 08:13:09;;;;;;;1.67;1.15;;;20.60;99.40;;;;;;5011954;28;20108;-40
2023/07/06 08:15:39;;;;;;;1.33;0.90;;;20.60;99.40;;;;;;5011733;28;20026;-38
2023/07/06 08:18:06;;;;;;;1.73;1.05;;;20.60;99.40;;;;;;5012461;28;20445;-40
2023/07/06 08:20:35;;;;;;;1.40;1.10;;;20.60;99.40;;;;;;5011687;28;20477;-39
2023/07/06 08:23:12;;;;;;;1.77;1.17;;;20.60;99.40;;;;;;5011761;28;20029;-39
2023/07/06 08:25:40;;;;;;;1.40;1.10;;;20.60;99.40;;;;;;5011936;28;20022;-39
2023/07/06 08:28:08;;;;;;;2.13;1.20;;;20.60;99.70;;;;;;5011800;28;20024;-37
2023/07/06 08:30:35;;;;;;;2.33;1.33;;;20.60;99.40;;;;;;5010229;28;20026;-40
2023/07/06 08:33:01;;;;;;;1.83;1.25;;;20.60;99.30;;;;;;5011897;28;20028;-39
2023/07/06 08:35:30;;;;;;;1.60;1.20;;;20.60;99.40;;;;;;5012794;28;20026;-40
2023/07/06 08:37:57;;;;;;;1.00;0.90;;;20.60;99.40;;;;;;5011521;28;20026;-40
2023/07/06 08:40:28;;;;;;;1.73;1.10;;;20.60;99.40;;;;;;5011397;28;20541;-38
2023/07/06 08:42:56;;;;;;;2.20;1.10;;;20.60;99.30;;;;;;5012867;28;20030;-40
2023/07/06 08:45:25;;;;;;;1.33;1.20;;;20.60;99.30;;;;;;5011663;28;20026;-39
2023/07/06 08:47:51;;;;;;;1.63;1.13;;;20.60;99.70;;;;;;5011425;28;20029;-40
2023/07/06 08:50:26;;;;;;;1.90;0.90;;;20.60;99.30;;;;;;5011170;28;20101;-39
2023/07/06 08:52:53;;;;;;;3.30;1.20;;;20.60;99.30;;;;;;5011462;28;20034;-40
2023/07/06 08:55:19;;;;;;;1.35;1.13;;;20.60;99.30;;;;;;5009952;28;20448;-39
2023/07/06 08:57:46;;;;;;;1.40;1.20;;;20.60;99.30;;;;;;5011304;28;20029;-40
2023/07/06 09:00:25;;;;;;;3.50;1.35;;;20.60;99.30;;;;;;5010958;28;20044;-39
2023/07/06 09:02:57;;;;;;;1.88;1.38;;;20.60;99.30;;;;;;5011865;28;20033;-41
2023/07/06 09:05:31;;;;;;;2.10;1.10;;;20.60;99.30;;;;;;5011729;28;20034;-41
2023/07/06 09:07:57;;;;;;;1.65;1.20;;;20.60;99.40;;;;;;5011286;28;20034;-41
2023/07/06 09:10:26;;;;;;;1.27;0.98;;;20.60;99.40;;;;;;5003034;28;20242;-39
2023/07/06 09:12:53;;;;;;;3.28;1.15;;;20.60;99.30;;;;;;5011990;28;20433;-40
2023/07/06 09:15:28;;;;;;;2.47;1.08;;;20.60;99.30;;;;;;5011049;28;20033;-41
2023/07/06 09:17:59;;;;;;;2.00;1.20;;;20.60;99.30;;;;;;5012822;28;20443;-41
2023/07/06 09:20:26;;;;;;;1.42;1.10;;;20.60;99.30;;;;;;5015363;28;20034;-39
2023/07/06 09:22:53;;;;;;;2.67;1.13;;;20.60;99.30;;;;;;5014619;28;20037;-37
2023/07/06 09:25:36;;;;;;;1.48;1.15;;;20.70;99.30;;;;;;5014839;28;20057;-40
2023/07/06 09:28:07;;;;;;;2.08;1.10;;;20.70;99.30;;;;;;5014893;28;20109;-40
2023/07/06 09:30:36;;;;;;;2.00;1.23;;;20.70;99.30;;;;;;5014595;28;20058;-39
2023/07/06 09:33:25;;;;;;;2.45;1.17;;;20.70;99.30;;;;;;5014746;28;20026;-39
2023/07/06 09:35:52;;;;;;;2.55;1.20;;;20.70;99.30;;;;;;5013433;28;20508;-39
2023/07/06 09:38:19;;;;;;;1.58;0.90;;;20.70;99.30;;;;;;5014697;28;20054;-41
2023/07/06 09:40:46;;;;;;;2.10;1.25;;;20.70;99.20;;;;;;5014412;28;20065;-39
2023/07/06 09:43:22;;;;;;;1.38;1.10;;;20.70;99.20;;;;;;5014962;28;20393;-38
2023/07/06 09:45:49;;;;;;;1.55;1.10;;;20.70;99.20;;;;;;5014452;28;20026;-39
2023/07/06 09:48:37;;;;;;;2.05;1.20;;;20.70;99.20;;;;;;5014434;28;20029;-40
2023/07/06 09:51:08;;;;;;;1.50;1.10;;;20.70;99.60;;;;;;5014283;28;20040;-39
2023/07/06 09:53:44;;;;;;;1.55;1.00;;;20.70;99.20;;;;;;5014364;28;20026;-38
2023/07/06 09:56:12;;;;;;;2.30;1.30;;;20.70;99.20;;;;;;5014368;28;20084;-39
2023/07/06 09:58:39;;;;;;;1.42;1.20;;;20.80;99.20;;;;;;5014258;28;20108;-40
2023/07/06 10:01:42;;;;;;;1.73;1.30;;;20.80;99.20;;;;;;5014446;28;20026;-39
2023/07/06 10:04:38;;;;;;;1.40;1.20;;;20.80;99.20;;;;;;5014052;28;20030;-39
2023/07/06 10:07:13;;;;;;;1.60;1.20;;;20.80;99.20;;;;;;5014109;28;20160;-39
2023/07/06 10:09:46;;;;;;;1.70;1.23;;;20.80;99.20;;;;;;5013841;28;20105;-40
2023/07/06 10:12:38;;;;;;;1.30;0.90;;;20.80;99.20;;;;;;5014037;28;20453;-41
2023/07/06 10:15:17;;;;;;;1.73;1.17;;;20.80;99.20;;;;;;5014396;28;20437;-39
2023/07/06 10:17:55;;;;;;;1.55;1.20;;;20.80;99.20;;;;;;5014014;28;20026;-40
2023/07/06 10:20:23;;;;;;;1.20;0.98;;;20.80;99.10;;;;;;5014284;28;20041;-40
2023/07/06 10:23:04;;;;;;;12.95;1.92;;;20.80;99.40;;;;;;5013870;28;20108;-39
2023/07/06 10:25:39;;;;;;;5.07;1.77;;;20.80;98.70;;;;;;5014174;28;20117;-40
2023/07/06 10:28:26;;;;;;;3.35;1.63;;;20.90;96.50;;;;;;5013995;28;20029;-40
2023/07/06 10:30:55;;;;;;;3.70;2.05;;;21.00;96.90;;;;;;5013661;28;20025;-40
2023/07/06 10:33:37;;;;;;;3.88;1.70;;;20.90;96.60;;;;;;5013727;28;20029;-39
2023/07/06 10:36:05;;;;;;;5.32;1.85;;;20.90;96.70;;;;;;5014191;28;20029;-41
2023/07/06 10:38:31;;;;;;;4.43;1.80;;;20.90;97.00;;;;;;5013504;28;20448;-38
2023/07/06 10:41:09;;;;;;;6.80;1.98;;;20.90;97.10;;;;;;5013421;28;20129;-40
2023/07/06 10:43:38;;;;;;;3.22;1.25;;;20.90;96.90;;;;;;5013370;28;20037;-40
2023/07/06 10:46:35;;;;;;;5.50;1.90;;;20.90;97.20;;;;;;5013457;28;20441;-40
2023/07/06 10:49:20;;;;;;;4.70;1.70;;;20.90;97.30;;;;;;5013656;28;20026;-39
2023/07/06 10:51:52;;;;;;;3.58;1.75;;;20.90;97.40;;;;;;5013358;28;20105;-38
2023/07/06 10:54:32;;;;;;;2.75;1.55;;;20.90;97.40;;;;;;5013145;28;20032;-41
2023/07/06 10:57:12;;;;;;;3.08;1.70;;;20.90;97.30;;;;;;5013971;28;20029;-39
2023/07/06 10:59:47;;;;;;;2.30;1.50;;;20.90;97.40;;;;;;5012928;28;20045;-39
2023/07/06 11:02:22;;;;;;;4.95;1.63;;;20.90;97.40;;;;;;5013201;28;20029;-39
2023/07/06 11:05:07;;;;;;;2.45;1.50;;;20.90;97.50;;;;;;5013237;28;20048;-40
2023/07/06 11:07:41;;;;;;;2.85;1.85;;;20.90;97.50;;;;;;5006399;28;20026;-39
2023/07/06 11:10:13;;;;;;;2.50;1.50;;;20.90;97.60;;;;;;5013201;28;20056;-38
2023/07/06 11:13:19;;;;;;;1.95;1.38;;;20.90;97.60;;;;;;5013724;28;20026;-40
2023/07/06 11:15:51;;;;;;;3.90;1.83;;;20.90;97.60;;;;;;4947355;29;20059;-39
2023/07/06 11:18:17;;;;;;;2.90;1.73;;;20.90;97.60;;;;;;4952215;29;20031;-41
2023/07/06 11:20:50;;;;;;;2.08;1.40;;;21.00;97.70;;;;;;4983369;28;20041;-40
2023/07/06 11:23:31;;;;;;;5.47;1.90;;;20.90;97.70;;;;;;5013929;28;20034;-39
2023/07/06 11:25:58;;;;;;;1.85;1.50;;;20.90;97.70;;;;;;5012520;28;20080;-41
2023/07/06 11:28:25;;;;;;;3.47;1.45;;;20.90;97.70;;;;;;5012522;28;20022;-39
2023/07/06 11:30:56;;;;;;;2.00;1.40;;;20.90;97.70;;;;;;5012399;28;20501;-39
2023/07/06 11:33:38;;;;;;;3.42;1.50;;;20.90;97.70;;;;;;5012572;28;20026;-39
2023/07/06 11:36:37;;;;;;;1.80;1.40;;;20.90;97.70;;;;;;5012896;28;20087;-41
2023/07/06 11:39:11;;;;;;;2.17;1.67;;;20.90;97.70;;;;;;5012432;28;20226;-38
2023/07/06 11:41:53;;;;;;;;;;;20.90;97.80;;;;;;5012288;28;20038;-40
2023/07/06 11:44:31;;;;;;;2.38;1.50;;;20.90;97.80;;;;;;5012301;28;19905;-40
2023/07/06 11:47:09;;;;;;;3.92;2.00;;;20.90;97.80;;;;;;5012280;28;20026;-42
2023/07/06 11:49:42;;;;;;;5.47;1.92;;;21.00;95.40;;;;;;5011918;28;20155;-39
2023/07/06 11:52:14;;;;;;;5.53;1.70;;;21.00;96.10;;;;;;5012367;28;20037;-39
2023/07/06 11:55:29;;;;;;;5.22;1.80;;;21.00;96.10;;;;;;5013084;28;20351;-40
2023/07/06 11:57:45;;;;;;;3.80;1.83;;;21.00;96.20;;;;;;5003867;28;20030;-40
2023/07/06 12:03:10;;;;;;;2.08;1.60;;;21.00;96.60;;;;;;5013037;28;20025;-39
2023/07/06 12:05:42;;;;;;;4.72;1.92;;;21.00;96.70;;;;;;5011933;28;20501;-37
2023/07/06 12:08:16;;;;;;;3.95;1.90;;;21.00;96.80;;;;;;5012762;28;20544;-40
2023/07/06 12:10:45;;;;;;;;;;;21.00;96.80;;;;;;5012424;28;20474;-39
2023/07/06 12:13:41;;;;;;;2.55;1.80;;;21.00;96.90;;;;;;5012026;28;20332;-40
2023/07/06 12:16:11;;;;;;;4.75;1.67;;;21.00;96.90;;;;;;5010361;28;20863;-40
2023/07/06 12:18:39;;;;;;;2.90;1.67;;;21.00;96.90;;;;;;5012073;28;20492;-41
2023/07/06 12:21:11;;;;;;;3.28;1.80;;;21.00;97.00;;;;;;5011652;28;20520;-39
2023/07/06 12:23:39;;;;;;;2.40;1.50;;;21.00;97.10;;;;;;5012956;28;20121;-40
2023/07/06 12:26:11;;;;;;;2.20;1.58;;;21.00;97.10;;;;;;5012757;28;20080;-38
2023/07/06 12:28:37;;;;;;;2.58;1.45;;;21.00;97.10;;;;;;5012838;28;20079;-39
2023/07/06 12:31:03;;;;;;;2.25;1.60;;;21.00;97.20;;;;;;5013506;28;20030;-39
2023/07/06 12:33:29;;;;;;;2.60;1.60;;;21.00;97.20;;;;;;5011706;28;20022;-39
2023/07/06 12:35:56;;;;;;;4.20;1.80;;;21.00;97.20;;;;;;5011575;28;20018;-39
2023/07/06 12:38:23;;;;;;;3.15;1.70;;;21.00;97.30;;;;;;5011486;28;20398;-40
2023/07/06 12:40:49;;;;;;;3.70;1.70;;;21.00;97.60;;;;;;5011176;28;20030;-40
2023/07/06 12:43:18;;;;;;;2.03;1.60;;;21.00;97.30;;;;;;5012555;28;20091;-40
2023/07/06 12:45:44;;;;;;;2.25;1.60;;;21.00;97.40;;;;;;5011448;28;20022;-37
2023/07/06 12:48:20;;;;;;;2.28;1.45;;;21.00;97.30;;;;;;5011401;28;20033;-40
2023/07/06 12:50:49;;;;;;;1.67;1.23;;;21.00;97.70;;;;;;5011370;28;20081;-39
2023/07/06 12:53:22;;;;;;;1.77;1.40;;;21.00;97.40;;;;;;5013398;28;20026;-40
2023/07/06 12:55:49;;;;;;;3.17;1.50;;;21.00;97.40;;;;;;5016063;28;20072;-40
2023/07/06 12:58:27;;;;;;;1.90;1.40;;;21.00;97.40;;;;;;5017100;28;20026;-41
2023/07/06 13:01:07;;;;;;;1.60;1.27;;;21.00;97.50;;;;;;5015303;28;20322;-39
2023/07/06 13:03:46;;;;;;;2.28;1.77;;;21.00;97.50;;;;;;5016172;28;20377;-39
2023/07/06 13:06:12;;;;;;;2.10;1.60;;;21.00;97.50;;;;;;5014443;28;20033;-39
2023/07/06 13:08:37;;;;;;;2.08;1.40;;;21.00;97.50;;;;;;5015103;28;20477;-39